createdAt,value
2022-11-20T00:01:25.973Z,92.45
2022-11-20T00:03:54.112Z,92.04
2022-11-20T00:06:21.423Z,90.87
2022-11-20T00:08:48.459Z,91.03
2022-11-20T00:11:18.256Z,91.03
2022-11-20T00:13:46.028Z,91.32
2022-11-20T00:16:14.856Z,91.42
2022-11-20T00:18:41.265Z,91.66
2022-11-20T00:21:12.275Z,91.29
2022-11-20T00:23:38.631Z,91.40
2022-11-20T00:26:07.701Z,91.50
2022-11-20T00:28:34.322Z,91.46
2022-11-20T00:31:17.388Z,90.62
2022-11-20T00:33:44.703Z,90.33
2022-11-20T00:36:13.980Z,90.54
2022-11-20T00:38:40.363Z,90.88
2022-11-20T00:41:09.644Z,90.89
2022-11-20T00:43:36.055Z,91.41
2022-11-20T00:46:05.130Z,91.51
2022-11-20T00:48:31.510Z,91.93
2022-11-20T00:50:57.870Z,92.22
2022-11-20T00:53:24.988Z,92.42
2022-11-20T00:55:56.032Z,92.61
2022-11-20T00:58:23.222Z,92.62
2022-11-20T01:00:50.194Z,92.62
2022-11-20T01:03:25.574Z,92.49
2022-11-20T01:05:53.264Z,92.34
2022-11-20T01:08:19.565Z,92.05
2022-11-20T01:10:45.869Z,92.09
2022-11-20T01:13:12.203Z,92.27
2022-11-20T01:15:38.743Z,91.87
2022-11-20T01:18:05.245Z,91.65
2022-11-20T01:20:35.784Z,91.58
2022-11-20T01:23:03.168Z,91.28
2022-11-20T01:25:30.121Z,91.19
2022-11-20T01:27:56.484Z,91.20
2022-11-20T01:30:22.829Z,91.18
2022-11-20T01:32:49.144Z,91.58
2022-11-20T01:35:15.519Z,91.57
2022-11-20T01:37:41.858Z,91.48
2022-11-20T01:40:08.872Z,91.09
2022-11-20T01:42:35.494Z,91.42
2022-11-20T01:45:02.034Z,91.41
2022-11-20T01:47:36.889Z,91.46
2022-11-20T01:50:38.772Z,91.81
2022-11-20T01:53:11.840Z,91.74
2022-11-20T01:55:42.655Z,91.62
2022-11-20T01:58:09.414Z,91.78
2022-11-20T02:00:35.849Z,92.22
2022-11-20T02:03:09.937Z,92.20
2022-11-20T02:06:00.427Z,92.12
2022-11-20T02:08:26.794Z,91.89
2022-11-20T02:10:53.175Z,91.35
2022-11-20T02:13:19.621Z,91.00
2022-11-20T02:15:47.847Z,91.40
2022-11-20T02:18:18.227Z,91.28
2022-11-20T02:20:48.536Z,91.13
2022-11-20T02:23:17.570Z,90.64
2022-11-20T02:25:46.733Z,90.64
2022-11-20T02:28:13.242Z,90.55
2022-11-20T02:30:39.569Z,90.26
2022-11-20T02:33:05.895Z,90.53
2022-11-20T02:35:32.169Z,90.65
2022-11-20T02:38:03.416Z,90.98
2022-11-20T02:40:30.406Z,90.67
2022-11-20T02:42:57.723Z,90.43
2022-11-20T02:45:25.381Z,91.11
2022-11-20T02:47:52.367Z,92.16
2022-11-20T02:50:19.262Z,92.78
2022-11-20T02:52:45.662Z,92.63
2022-11-20T02:55:12.657Z,92.10
2022-11-20T02:57:39.027Z,92.02
2022-11-20T03:00:06.651Z,91.87
2022-11-20T03:02:33.783Z,91.71
2022-11-20T03:05:00.150Z,91.60
2022-11-20T03:07:26.471Z,90.96
2022-11-20T03:09:52.829Z,90.47
2022-11-20T03:12:19.128Z,90.02
2022-11-20T03:14:50.218Z,90.25
2022-11-20T03:17:19.130Z,90.22
2022-11-20T03:19:45.477Z,90.47
2022-11-20T03:22:11.779Z,90.59
2022-11-20T03:24:38.140Z,90.96
2022-11-20T03:27:04.438Z,90.55
2022-11-20T03:29:30.817Z,90.38
2022-11-20T03:31:57.126Z,90.58
2022-11-20T03:34:23.461Z,90.63
2022-11-20T03:36:49.808Z,90.65
2022-11-20T03:39:16.128Z,90.58
2022-11-20T03:41:42.635Z,90.68
2022-11-20T03:44:11.173Z,90.65
2022-11-20T03:46:38.058Z,90.65
2022-11-20T03:49:04.765Z,90.82
2022-11-20T03:51:33.484Z,90.41
2022-11-20T03:54:02.363Z,90.09
2022-11-20T03:56:31.057Z,90.00
2022-11-20T03:58:57.893Z,90.53
2022-11-20T04:01:27.148Z,90.63
2022-11-20T04:03:55.110Z,90.31
2022-11-20T04:06:29.562Z,90.86
2022-11-20T04:08:57.644Z,90.60
2022-11-20T04:11:26.886Z,90.83
2022-11-20T04:13:56.720Z,91.04
2022-11-20T04:16:24.779Z,91.33
2022-11-20T04:18:55.977Z,91.31
2022-11-20T04:21:22.622Z,91.32
2022-11-20T04:23:49.577Z,91.69
2022-11-20T04:26:16.070Z,91.76
2022-11-20T04:28:42.452Z,91.60
2022-11-20T04:31:14.543Z,91.26
2022-11-20T04:33:41.760Z,91.15
2022-11-20T04:36:12.571Z,91.37
2022-11-20T04:38:39.894Z,91.72
2022-11-20T04:41:08.149Z,91.48
2022-11-20T04:43:35.071Z,91.33
2022-11-20T04:46:02.066Z,91.00
2022-11-20T04:48:29.684Z,90.96
2022-11-20T04:50:56.200Z,90.96
2022-11-20T04:53:23.597Z,91.16
2022-11-20T04:55:49.996Z,91.08
2022-11-20T04:58:17.358Z,90.99
2022-11-20T05:00:43.702Z,90.79
2022-11-20T05:03:10.023Z,90.86
2022-11-20T05:05:36.422Z,90.53
2022-11-20T05:08:02.863Z,90.22
2022-11-20T05:10:29.332Z,90.22
2022-11-20T05:12:55.712Z,90.37
2022-11-20T05:15:22.238Z,90.17
2022-11-20T05:17:52.875Z,90.05
2022-11-20T05:20:19.915Z,90.20
2022-11-20T05:22:46.669Z,89.86
2022-11-20T05:25:13.281Z,90.41
2022-11-20T05:27:39.609Z,90.86
2022-11-20T05:30:06.630Z,91.31
2022-11-20T05:32:32.995Z,91.10
2022-11-20T05:34:59.379Z,90.93
2022-11-20T05:37:25.690Z,90.95
2022-11-20T05:39:52.035Z,90.63
2022-11-20T05:42:18.365Z,90.60
2022-11-20T05:44:44.699Z,90.64
2022-11-20T05:47:11.006Z,90.40
2022-11-20T05:49:37.336Z,90.50
2022-11-20T05:52:03.823Z,90.61
2022-11-20T05:54:30.144Z,90.98
2022-11-20T05:56:56.465Z,91.14
2022-11-20T05:59:23.000Z,91.25
2022-11-20T06:01:49.564Z,91.30
2022-11-20T06:04:15.876Z,91.25
2022-11-20T06:06:42.210Z,91.18
2022-11-20T06:09:08.537Z,90.95
2022-11-20T06:11:34.872Z,90.83
2022-11-20T06:14:01.209Z,91.02
2022-11-20T06:16:27.537Z,91.30
2022-11-20T06:18:53.852Z,91.40
2022-11-20T06:21:21.841Z,91.61
2022-11-20T06:23:48.879Z,92.18
2022-11-20T06:26:21.189Z,92.25
2022-11-20T06:28:47.897Z,92.23
2022-11-20T06:31:16.571Z,92.04
2022-11-20T06:33:44.110Z,91.90
2022-11-20T06:36:12.861Z,91.82
2022-11-20T06:38:40.103Z,91.60
2022-11-20T06:41:07.699Z,91.43
2022-11-20T06:43:34.042Z,91.50
2022-11-20T06:46:00.515Z,91.03
2022-11-20T06:48:28.189Z,90.77
2022-11-20T06:50:54.522Z,90.84
2022-11-20T06:53:20.882Z,90.70
2022-11-20T06:55:48.003Z,91.06
2022-11-20T06:58:15.318Z,91.11
2022-11-20T07:00:42.412Z,91.22
2022-11-20T07:03:11.025Z,91.18
2022-11-20T07:05:38.146Z,90.79
2022-11-20T07:08:05.257Z,90.28
2022-11-20T07:10:32.281Z,90.30
2022-11-20T07:12:58.592Z,90.18
2022-11-20T07:15:25.593Z,90.29
2022-11-20T07:17:52.251Z,90.46
2022-11-20T07:20:18.776Z,90.05
2022-11-20T07:22:45.130Z,89.75
2022-11-20T07:25:11.681Z,89.34
2022-11-20T07:27:38.039Z,89.41
2022-11-20T07:30:05.143Z,89.11
2022-11-20T07:32:31.472Z,89.39
2022-11-20T07:34:57.828Z,89.60
2022-11-20T07:37:24.134Z,89.20
2022-11-20T07:39:50.454Z,89.00
2022-11-20T07:42:16.858Z,88.93
2022-11-20T07:44:43.184Z,88.46
2022-11-20T07:47:09.480Z,88.17
2022-11-20T07:49:35.797Z,87.64
2022-11-20T07:52:05.032Z,87.87
2022-11-20T07:54:31.802Z,87.66
2022-11-20T07:56:58.125Z,87.47
2022-11-20T07:59:24.540Z,87.17
2022-11-20T08:01:50.942Z,86.59
2022-11-20T08:04:17.271Z,86.40
2022-11-20T08:06:43.635Z,86.41
2022-11-20T08:09:09.983Z,86.30
2022-11-20T08:11:36.294Z,86.39
2022-11-20T08:14:02.616Z,86.09
2022-11-20T08:16:29.145Z,85.62
2022-11-20T08:18:55.932Z,84.57
2022-11-20T08:21:22.235Z,84.89
2022-11-20T08:23:48.569Z,84.73
2022-11-20T08:26:14.888Z,84.68
2022-11-20T08:28:41.190Z,84.52
2022-11-20T08:31:07.505Z,84.33
2022-11-20T08:33:33.837Z,84.13
2022-11-20T08:36:01.732Z,84.07
2022-11-20T08:38:28.173Z,84.13
2022-11-20T08:40:58.626Z,84.29
2022-11-20T08:43:24.934Z,84.35
2022-11-20T08:45:51.245Z,84.23
2022-11-20T08:48:17.556Z,83.85
2022-11-20T08:50:43.886Z,83.51
2022-11-20T08:53:10.203Z,83.09
2022-11-20T08:55:36.724Z,82.21
2022-11-20T08:58:07.307Z,82.92
2022-11-20T09:00:34.719Z,83.18
2022-11-20T09:03:01.690Z,82.68
2022-11-20T09:05:28.444Z,83.85
2022-11-20T09:07:58.618Z,84.75
2022-11-20T09:10:25.352Z,85.23
2022-11-20T09:12:53.136Z,85.37
2022-11-20T09:15:20.295Z,85.66
2022-11-20T09:18:00.631Z,85.40
2022-11-20T09:20:28.782Z,84.78
2022-11-20T09:22:55.664Z,84.71
2022-11-20T09:25:22.200Z,84.58
2022-11-20T09:27:48.557Z,85.24
2022-11-20T09:30:16.264Z,85.37
2022-11-20T09:32:43.628Z,85.54
2022-11-20T09:35:10.497Z,85.33
2022-11-20T09:37:36.971Z,84.91
2022-11-20T09:40:04.023Z,85.06
2022-11-20T09:42:38.149Z,84.71
2022-11-20T09:45:55.677Z,85.14
2022-11-20T09:48:32.161Z,85.18
2022-11-20T09:51:11.298Z,85.53
2022-11-20T09:53:55.631Z,85.80
2022-11-20T09:56:22.911Z,85.94
2022-11-20T09:58:52.426Z,86.14
2022-11-20T10:01:32.760Z,85.71
2022-11-20T10:04:04.222Z,85.07
2022-11-20T10:06:42.880Z,83.99
2022-11-20T10:09:12.172Z,81.76
2022-11-20T10:12:07.784Z,80.67
2022-11-20T10:14:39.785Z,80.36
2022-11-20T10:17:43.274Z,80.15
2022-11-20T10:20:36.427Z,79.28
2022-11-20T10:23:30.689Z,80.63
2022-11-20T10:26:04.726Z,80.65
2022-11-20T10:29:09.300Z,80.34
2022-11-20T10:31:41.494Z,79.46
2022-11-20T10:34:21.018Z,79.02
2022-11-20T10:36:56.882Z,79.40
2022-11-20T10:40:01.645Z,78.52
2022-11-20T10:42:46.218Z,77.98
2022-11-20T10:45:24.779Z,77.83
2022-11-20T10:47:53.853Z,77.99
2022-11-20T10:50:22.994Z,77.99
2022-11-20T10:53:34.805Z,77.69
2022-11-20T10:56:20.322Z,78.07
2022-11-20T10:59:01.258Z,77.09
2022-11-20T11:01:27.802Z,76.90
2022-11-20T11:03:56.265Z,76.38
2022-11-20T11:06:46.328Z,76.50
2022-11-20T11:09:33.512Z,76.30
2022-11-20T11:12:05.758Z,75.25
2022-11-20T11:14:46.222Z,75.47
2022-11-20T11:17:47.718Z,75.52
2022-11-20T11:20:25.429Z,74.92
2022-11-20T11:22:53.151Z,74.31
2022-11-20T11:25:28.438Z,72.64
2022-11-20T11:27:56.885Z,73.15
2022-11-20T11:30:25.354Z,73.78
2022-11-20T11:33:02.699Z,71.64
2022-11-20T11:35:29.342Z,71.80
2022-11-20T11:38:05.533Z,72.40
2022-11-20T11:40:37.216Z,72.56
2022-11-20T11:43:08.581Z,72.19
2022-11-20T11:45:34.918Z,72.83
2022-11-20T11:48:04.563Z,72.91
2022-11-20T11:50:30.946Z,73.33
2022-11-20T11:53:09.847Z,72.83
2022-11-20T11:55:44.814Z,73.80
2022-11-20T11:58:19.790Z,73.39
2022-11-20T12:00:58.097Z,73.67
2022-11-20T12:03:36.748Z,72.80
2022-11-20T12:06:09.952Z,72.94
2022-11-20T12:08:54.112Z,73.32
2022-11-20T12:11:47.735Z,71.17
2022-11-20T12:14:34.996Z,70.72
2022-11-20T12:17:02.757Z,70.04
2022-11-20T12:19:35.354Z,70.30
2022-11-20T12:22:26.386Z,69.62
2022-11-20T12:25:02.637Z,69.92
2022-11-20T12:27:53.801Z,70.94
2022-11-20T12:30:22.064Z,69.87
2022-11-20T12:33:19.222Z,71.13
2022-11-20T12:36:17.241Z,69.82
2022-11-20T12:38:46.523Z,68.61
2022-11-20T12:41:28.166Z,69.16
2022-11-20T12:44:24.073Z,69.86
2022-11-20T12:47:09.522Z,69.12
2022-11-20T12:49:49.268Z,69.93
2022-11-20T12:52:27.552Z,70.05
2022-11-20T12:55:13.341Z,68.35
2022-11-20T12:57:47.309Z,68.55
2022-11-20T13:00:20.563Z,68.65
2022-11-20T13:03:13.512Z,69.31
2022-11-20T13:05:49.153Z,69.70
2022-11-20T13:08:37.027Z,69.58
2022-11-20T13:11:19.985Z,67.36
2022-11-20T13:14:12.525Z,67.46
2022-11-20T13:16:51.493Z,66.96
2022-11-20T13:19:19.044Z,67.02
2022-11-20T13:21:50.356Z,67.19
2022-11-20T13:24:20.020Z,68.38
2022-11-20T13:26:47.735Z,68.10
2022-11-20T13:29:19.492Z,68.69
2022-11-20T13:31:49.332Z,69.40
2022-11-20T13:34:25.853Z,69.77
2022-11-20T13:36:57.925Z,70.66
2022-11-20T13:39:29.767Z,71.90
2022-11-20T13:41:58.930Z,72.39
2022-11-20T13:44:37.598Z,72.64
2022-11-20T13:47:04.588Z,71.28
2022-11-20T13:49:35.177Z,71.05
2022-11-20T13:52:15.074Z,70.26
2022-11-20T13:54:50.378Z,70.75
2022-11-20T13:57:19.664Z,70.70
2022-11-20T13:59:55.097Z,69.88
2022-11-20T14:02:23.986Z,70.17
2022-11-20T14:04:53.635Z,70.47
2022-11-20T14:07:24.697Z,70.61
2022-11-20T14:09:56.840Z,71.57
2022-11-20T14:12:29.031Z,72.32
2022-11-20T14:14:55.907Z,72.54
2022-11-20T14:17:23.964Z,72.44
2022-11-20T14:19:52.573Z,72.43
2022-11-20T14:22:24.659Z,71.46
2022-11-20T14:25:12.515Z,72.08
2022-11-20T14:27:41.415Z,72.17
2022-11-20T14:30:19.974Z,71.83
2022-11-20T14:32:47.777Z,72.39
2022-11-20T14:35:41.420Z,72.72
2022-11-20T14:38:12.816Z,71.99
2022-11-20T14:40:39.177Z,71.24
2022-11-20T14:43:23.520Z,71.34
2022-11-20T14:46:07.950Z,71.33
2022-11-20T14:48:44.130Z,72.50
2022-11-20T14:51:12.328Z,72.59
2022-11-20T14:53:38.743Z,73.17
2022-11-20T14:56:05.261Z,73.72
2022-11-20T14:58:34.312Z,73.33
2022-11-20T15:01:08.272Z,74.56
2022-11-20T15:03:39.591Z,75.34
2022-11-20T15:06:08.088Z,76.01
2022-11-20T15:08:35.316Z,76.34
2022-11-20T15:11:02.410Z,76.71
2022-11-20T15:13:38.568Z,76.31
2022-11-20T15:16:17.358Z,76.34
2022-11-20T15:18:44.038Z,76.43
2022-11-20T15:21:16.098Z,76.22
2022-11-20T15:23:43.529Z,76.49
2022-11-20T15:26:15.390Z,76.06
2022-11-20T15:28:46.636Z,75.44
2022-11-20T15:31:14.725Z,75.50
2022-11-20T15:33:41.044Z,77.02
2022-11-20T15:36:07.649Z,78.16
2022-11-20T15:38:33.984Z,78.06
2022-11-20T15:41:00.330Z,78.11
2022-11-20T15:43:26.648Z,78.00
2022-11-20T15:46:00.257Z,77.00
2022-11-20T15:48:36.803Z,77.72
2022-11-20T15:51:11.949Z,77.35
2022-11-20T15:53:39.137Z,77.28
2022-11-20T15:56:05.628Z,77.13
2022-11-20T15:58:31.934Z,78.15
2022-11-20T16:00:58.365Z,78.71
2022-11-20T16:03:25.086Z,79.22
2022-11-20T16:05:51.387Z,79.21
2022-11-20T16:08:17.726Z,79.84
2022-11-20T16:10:44.050Z,80.37
2022-11-20T16:13:16.903Z,80.21
2022-11-20T16:15:46.227Z,80.43
2022-11-20T16:18:15.898Z,80.20
2022-11-20T16:20:42.450Z,80.97
2022-11-20T16:23:08.791Z,80.92
2022-11-20T16:25:35.185Z,80.65
2022-11-20T16:28:01.478Z,80.30
2022-11-20T16:30:27.789Z,80.00
2022-11-20T16:32:54.523Z,80.01
2022-11-20T16:35:20.862Z,79.81
2022-11-20T16:37:47.147Z,79.26
2022-11-20T16:40:13.451Z,78.69
2022-11-20T16:42:39.742Z,78.89
2022-11-20T16:45:06.570Z,78.76
2022-11-20T16:47:36.048Z,79.09
2022-11-20T16:50:04.033Z,78.94
2022-11-20T16:52:31.131Z,79.07
2022-11-20T16:54:58.171Z,78.63
2022-11-20T16:57:25.071Z,79.35
2022-11-20T16:59:51.376Z,78.93
2022-11-20T17:02:17.709Z,77.98
2022-11-20T17:04:44.017Z,77.89
2022-11-20T17:07:10.423Z,78.19
2022-11-20T17:09:36.790Z,78.34
2022-11-20T17:12:03.265Z,79.10
2022-11-20T17:14:29.631Z,79.71
2022-11-20T17:16:55.930Z,79.70
2022-11-20T17:19:22.241Z,79.33
2022-11-20T17:21:48.563Z,78.87
2022-11-20T17:24:15.534Z,79.66
2022-11-20T17:26:43.516Z,79.42
2022-11-20T17:29:16.168Z,78.82
2022-11-20T17:31:43.221Z,78.53
2022-11-20T17:34:13.597Z,79.33
2022-11-20T17:36:44.889Z,79.41
2022-11-20T17:39:16.044Z,78.89
2022-11-20T17:41:42.373Z,79.19
2022-11-20T17:44:12.872Z,79.26
2022-11-20T17:46:39.804Z,79.50
2022-11-20T17:49:06.307Z,79.98
2022-11-20T17:51:33.605Z,79.67
2022-11-20T17:54:02.222Z,79.49
2022-11-20T17:56:32.983Z,78.77
2022-11-20T17:59:00.784Z,79.07
2022-11-20T18:01:27.137Z,78.83
2022-11-20T18:03:56.212Z,78.50
2022-11-20T18:06:25.092Z,79.29
2022-11-20T18:08:52.079Z,79.25
2022-11-20T18:11:18.319Z,79.58
2022-11-20T18:13:47.963Z,79.72
2022-11-20T18:16:14.395Z,79.97
2022-11-20T18:18:40.703Z,80.17
2022-11-20T18:21:07.017Z,80.11
2022-11-20T18:23:33.762Z,80.79
2022-11-20T18:26:00.581Z,80.54
2022-11-20T18:28:26.880Z,80.64
2022-11-20T18:30:53.393Z,80.42
2022-11-20T18:33:23.038Z,80.72
2022-11-20T18:35:51.829Z,81.08
2022-11-20T18:38:18.133Z,81.04
2022-11-20T18:40:44.447Z,80.60
2022-11-20T18:43:11.152Z,80.03
2022-11-20T18:45:37.494Z,80.10
2022-11-20T18:48:03.914Z,80.86
2022-11-20T18:50:30.256Z,80.70
2022-11-20T18:52:56.549Z,80.66
2022-11-20T18:55:22.873Z,80.48
2022-11-20T18:57:49.182Z,80.17
2022-11-20T19:00:15.855Z,80.35
2022-11-20T19:02:43.411Z,80.52
2022-11-20T19:05:14.456Z,80.60
2022-11-20T19:07:41.146Z,80.58
2022-11-20T19:10:08.243Z,80.61
2022-11-20T19:12:34.577Z,80.93
2022-11-20T19:15:00.909Z,81.30
2022-11-20T19:17:27.238Z,82.74
2022-11-20T19:19:53.590Z,83.95
2022-11-20T19:22:20.008Z,84.98
2022-11-20T19:24:46.337Z,85.21
2022-11-20T19:27:12.659Z,86.14
2022-11-20T19:29:39.030Z,86.70
2022-11-20T19:32:05.510Z,87.35
2022-11-20T19:34:31.877Z,87.78
2022-11-20T19:36:58.370Z,88.03
2022-11-20T19:39:24.923Z,87.96
2022-11-20T19:41:51.436Z,88.02
2022-11-20T19:44:17.802Z,88.38
2022-11-20T19:46:44.366Z,88.91
2022-11-20T19:49:13.179Z,89.32
2022-11-20T19:51:44.596Z,89.34
2022-11-20T19:54:10.945Z,89.96
2022-11-20T19:56:37.276Z,90.54
2022-11-20T19:59:03.603Z,90.88
2022-11-20T20:01:31.660Z,91.02
2022-11-20T20:03:59.516Z,90.96
2022-11-20T20:06:26.370Z,90.83
2022-11-20T20:09:02.490Z,91.90
2022-11-20T20:11:31.184Z,91.93
2022-11-20T20:13:57.531Z,92.09
2022-11-20T20:16:25.660Z,91.64
2022-11-20T20:19:00.015Z,91.50
2022-11-20T20:21:26.366Z,91.67
2022-11-20T20:23:54.362Z,91.72
2022-11-20T20:26:22.658Z,91.60
2022-11-20T20:28:49.179Z,91.40
2022-11-20T20:31:18.902Z,91.65
2022-11-20T20:33:45.710Z,91.43
2022-11-20T20:36:13.989Z,91.54
2022-11-20T20:38:40.603Z,92.34
2022-11-20T20:41:06.933Z,93.92
2022-11-20T20:43:33.379Z,94.64
2022-11-20T20:45:59.716Z,94.37
2022-11-20T20:48:26.049Z,94.48
2022-11-20T20:50:57.719Z,94.82
2022-11-20T20:53:25.029Z,94.46
2022-11-20T20:55:58.787Z,94.23
2022-11-20T20:58:25.755Z,94.16
2022-11-20T21:00:52.296Z,94.04
2022-11-20T21:03:19.766Z,93.67
2022-11-20T21:05:46.813Z,93.46
2022-11-20T21:08:13.252Z,92.22
2022-11-20T21:10:39.595Z,91.96
2022-11-20T21:13:05.938Z,91.92
2022-11-20T21:15:32.237Z,92.22
2022-11-20T21:17:58.545Z,92.78
2022-11-20T21:20:24.867Z,92.94
2022-11-20T21:22:51.184Z,92.22
2022-11-20T21:25:17.540Z,91.49
2022-11-20T21:27:43.869Z,92.42
2022-11-20T21:30:10.737Z,92.57
2022-11-20T21:32:37.073Z,92.49
2022-11-20T21:35:03.456Z,92.36
2022-11-20T21:37:29.764Z,93.05
2022-11-20T21:39:56.105Z,94.28
2022-11-20T21:42:22.425Z,93.65
2022-11-20T21:44:48.799Z,94.33
2022-11-20T21:47:15.195Z,93.10
2022-11-20T21:49:41.523Z,94.24
2022-11-20T21:52:07.868Z,94.65
2022-11-20T21:54:34.160Z,94.12
2022-11-20T21:57:00.467Z,94.49
2022-11-20T21:59:26.812Z,94.68
2022-11-20T22:01:53.182Z,95.54
2022-11-20T22:04:19.631Z,95.88
2022-11-20T22:06:45.976Z,96.61
2022-11-20T22:09:13.347Z,95.06
2022-11-20T22:11:39.663Z,94.61
2022-11-20T22:14:06.076Z,94.65
2022-11-20T22:16:36.795Z,95.02
2022-11-20T22:19:04.780Z,95.84
2022-11-20T22:21:32.093Z,96.04
2022-11-20T22:23:58.815Z,94.15
2022-11-20T22:26:40.251Z,93.14
2022-11-20T22:29:07.545Z,92.68
2022-11-20T22:31:34.063Z,92.79
2022-11-20T22:34:02.016Z,92.80
2022-11-20T22:36:30.357Z,93.75
2022-11-20T22:38:57.514Z,94.02
2022-11-20T22:41:28.405Z,93.70
2022-11-20T22:43:56.467Z,93.77
2022-11-20T22:46:23.937Z,94.94
2022-11-20T22:48:53.476Z,95.20
2022-11-20T22:51:22.874Z,93.62
2022-11-20T22:53:49.545Z,92.70
2022-11-20T22:56:16.680Z,92.46
2022-11-20T22:58:45.134Z,92.93
2022-11-20T23:01:15.322Z,93.39
2022-11-20T23:03:44.576Z,94.56
2022-11-20T23:06:12.062Z,94.27
2022-11-20T23:08:39.654Z,93.08
2022-11-20T23:11:16.884Z,93.76
2022-11-20T23:13:44.551Z,93.98
2022-11-20T23:16:13.869Z,93.55
2022-11-20T23:18:41.370Z,93.47
2022-11-20T23:21:16.202Z,93.90
2022-11-20T23:23:42.990Z,92.66
2022-11-20T23:26:13.735Z,91.85
2022-11-20T23:28:40.885Z,91.44
2022-11-20T23:31:08.753Z,92.12
2022-11-20T23:33:36.035Z,92.46
2022-11-20T23:36:02.775Z,92.98
2022-11-20T23:38:29.145Z,92.97
2022-11-20T23:40:55.446Z,92.87
2022-11-20T23:43:22.484Z,93.33
2022-11-20T23:45:53.741Z,93.04
2022-11-20T23:48:21.622Z,93.56
2022-11-20T23:50:48.807Z,93.63
2022-11-20T23:53:15.986Z,93.76
2022-11-20T23:55:50.744Z,92.68
2022-11-20T23:58:17.206Z,92.87
